Time;durP1;ratioP1;P1;durP2;ratioP2;P2;SDS_P1;SDS_P2;PMS_P1;PMS_P2;Temp;Humidity;BMP_temperature;BMP_pressure;BME280_temperature;BME280_humidity;BME280_pressure;Samples;Min_cycle;Max_cycle;Signal;HPM_P1;HPM_P2
2021/03/12 00:01:42;;;;;;;25.70;16.83;;;;;;;;;;4999293;28;20052;-87
2021/03/12 00:04:08;;;;;;;26.70;16.52;;;;;;;;;;4999030;28;20026;-86
2021/03/12 00:06:34;;;;;;;25.35;16.15;;;;;;;;;;4999711;28;20034;-87
2021/03/12 00:09:00;;;;;;;27.83;16.95;;;;;;;;;;4999640;28;20026;-87
2021/03/12 00:11:26;;;;;;;25.20;16.10;;;;;;;;;;4999271;28;20022;-87
2021/03/12 00:17:33;;;;;;;25.73;15.52;;;;;;;;;;4999231;28;20029;-87
2021/03/12 00:19:59;;;;;;;27.50;17.00;;;;;;;;;;4999029;28;20417;-87
2021/03/12 00:22:25;;;;;;;25.73;16.25;;;;;;;;;;4999007;28;20139;-87
2021/03/12 00:24:51;;;;;;;28.20;16.45;;;;;;;;;;4998078;28;20121;-87
2021/03/12 00:27:17;;;;;;;30.85;16.35;;;;;;;;;;4998903;28;20030;-87
2021/03/12 00:35:50;;;;;;;25.23;15.88;;;;;;;;;;4979735;28;20134;-86
2021/03/12 00:38:16;;;;;;;28.23;16.33;;;;;;;;;;4979581;28;20035;-87
2021/03/12 00:40:52;;;;;;;27.50;16.42;;;;;;;;;;4979311;28;20022;-87
2021/03/12 00:43:31;;;;;;;23.27;15.55;;;;;;;;;;4979326;28;20031;-86
2021/03/12 00:45:58;;;;;;;28.30;15.63;;;;;;;;;;4979270;28;20114;-86
2021/03/12 00:48:25;;;;;;;26.20;15.43;;;;;;;;;;4979003;28;20034;-86
2021/03/12 00:50:52;;;;;;;25.00;14.75;;;;;;;;;;4978548;28;20058;-86
2021/03/12 00:53:18;;;;;;;21.25;14.75;;;;;;;;;;4978640;28;20078;-86
2021/03/12 00:55:44;;;;;;;24.48;15.00;;;;;;;;;;4978904;28;20058;-87
2021/03/12 00:58:10;;;;;;;24.67;14.35;;;;;;;;;;4977989;28;20031;-86
2021/03/12 01:03:39;;;;;;;22.40;14.60;;;;;;;;;;4981903;28;20353;-87
2021/03/12 01:06:06;;;;;;;21.38;13.65;;;;;;;;;;4998754;28;20110;-87
2021/03/12 01:08:32;;;;;;;21.65;14.23;;;;;;;;;;4998562;28;20065;-86
2021/03/12 01:10:58;;;;;;;22.75;14.95;;;;;;;;;;4998262;28;20113;-86
2021/03/12 01:13:24;;;;;;;21.90;14.88;;;;;;;;;;4998168;28;20022;-87
2021/03/12 01:15:50;;;;;;;21.55;14.95;;;;;;;;;;4998225;28;20018;-86
2021/03/12 01:18:16;;;;;;;23.60;14.40;;;;;;;;;;4998053;28;20034;-87
2021/03/12 01:20:42;;;;;;;21.20;14.60;;;;;;;;;;4997194;28;20405;-86
2021/03/12 01:23:08;;;;;;;21.88;14.50;;;;;;;;;;4998275;28;20421;-86
2021/03/12 01:25:39;;;;;;;22.35;14.38;;;;;;;;;;4997205;28;20042;-87
2021/03/12 01:28:05;;;;;;;24.88;14.65;;;;;;;;;;4998307;28;20122;-87
2021/03/12 01:30:36;;;;;;;25.48;14.82;;;;;;;;;;4998390;28;20038;-87
2021/03/12 01:33:02;;;;;;;34.70;16.05;;;;;;;;;;4998148;28;20033;-87
2021/03/12 01:35:28;;;;;;;24.42;15.98;;;;;;;;;;4998087;28;20691;-88
2021/03/12 01:37:54;;;;;;;22.05;15.65;;;;;;;;;;4998219;28;20046;-87
2021/03/12 01:40:21;;;;;;;26.52;16.48;;;;;;;;;;4998019;28;20026;-88
2021/03/12 01:42:47;;;;;;;23.90;16.05;;;;;;;;;;4998225;28;20045;-87
2021/03/12 01:45:17;;;;;;;27.80;16.60;;;;;;;;;;4998114;28;20176;-88
2021/03/12 01:47:44;;;;;;;28.63;17.63;;;;;;;;;;4980968;28;20030;-88
2021/03/12 01:50:10;;;;;;;28.63;17.60;;;;;;;;;;4997916;28;20061;-87
2021/03/12 01:52:36;;;;;;;26.58;16.90;;;;;;;;;;4997650;28;20050;-88
2021/03/12 01:55:04;;;;;;;27.40;16.35;;;;;;;;;;4997928;28;20489;-88
2021/03/12 01:57:30;;;;;;;30.80;16.42;;;;;;;;;;4996985;28;20421;-87
2021/03/12 01:59:56;;;;;;;29.20;16.40;;;;;;;;;;4998189;28;20058;-88
2021/03/12 02:02:22;;;;;;;26.50;17.13;;;;;;;;;;4997756;28;20026;-87
2021/03/12 02:04:48;;;;;;;30.55;18.05;;;;;;;;;;4997524;28;20035;-88
2021/03/12 02:07:14;;;;;;;36.15;18.75;;;;;;;;;;5000593;28;20120;-85
2021/03/12 02:09:40;;;;;;;45.95;19.27;;;;;;;;;;5001546;28;20030;-86
2021/03/12 02:12:36;;;;;;;42.35;18.48;;;;;;;;;;5000506;28;20022;-85
2021/03/12 02:15:07;;;;;;;49.45;19.70;;;;;;;;;;4960709;28;20160;-86
2021/03/12 02:17:45;;;;;;;27.47;15.93;;;;;;;;;;4945175;29;20028;-87
2021/03/12 02:20:32;;;;;;;24.27;14.23;;;;;;;;;;4961039;29;20035;-87
2021/03/12 02:23:17;;;;;;;23.83;14.70;;;;;;;;;;4961170;28;20466;-87
2021/03/12 02:25:46;;;;;;;22.65;15.18;;;;;;;;;;4960913;29;20461;-87
2021/03/12 02:28:12;;;;;;;22.67;14.70;;;;;;;;;;4960832;29;20059;-87
2021/03/12 02:31:15;;;;;;;23.77;14.68;;;;;;;;;;4960753;29;20427;-86
2021/03/12 02:33:41;;;;;;;21.95;14.43;;;;;;;;;;4960403;29;20127;-86
2021/03/12 02:36:08;;;;;;;22.45;14.45;;;;;;;;;;4960606;29;20371;-85
2021/03/12 02:38:34;;;;;;;23.38;15.35;;;;;;;;;;4960220;28;20099;-85
2021/03/12 02:41:01;;;;;;;24.75;15.30;;;;;;;;;;4960651;29;20066;-88
2021/03/12 02:43:28;;;;;;;28.15;17.40;;;;;;;;;;4960916;28;20027;-89
2021/03/12 02:46:12;;;;;;;21.98;14.70;;;;;;;;;;4944354;29;20043;-87
2021/03/12 02:48:39;;;;;;;22.63;14.95;;;;;;;;;;4960402;29;20038;-88
2021/03/12 02:51:06;;;;;;;22.67;14.15;;;;;;;;;;4975094;28;20042;-87
2021/03/12 02:53:33;;;;;;;23.55;14.68;;;;;;;;;;5000664;28;20033;-85
2021/03/12 02:55:59;;;;;;;23.25;14.38;;;;;;;;;;5000641;28;20537;-87
2021/03/12 02:58:25;;;;;;;21.60;14.48;;;;;;;;;;5000547;28;20298;-87
2021/03/12 03:00:52;;;;;;;26.70;14.65;;;;;;;;;;5000886;28;20026;-87
2021/03/12 03:03:18;;;;;;;23.45;14.32;;;;;;;;;;5000691;28;20037;-87
2021/03/12 03:05:44;;;;;;;22.52;15.00;;;;;;;;;;5000953;28;20367;-87
2021/03/12 03:08:11;;;;;;;23.92;15.05;;;;;;;;;;5000910;28;20046;-87
2021/03/12 03:10:37;;;;;;;23.02;14.77;;;;;;;;;;5000723;28;20026;-87
2021/03/12 03:13:03;;;;;;;27.73;15.27;;;;;;;;;;5000282;28;20109;-86
2021/03/12 03:18:34;;;;;;;23.40;15.07;;;;;;;;;;5000066;28;20037;-87
2021/03/12 03:21:01;;;;;;;22.05;14.45;;;;;;;;;;4999329;28;20401;-87
2021/03/12 03:23:27;;;;;;;23.55;14.55;;;;;;;;;;5000265;28;20034;-87
2021/03/12 03:25:57;;;;;;;22.13;14.13;;;;;;;;;;5000092;28;20014;-87
2021/03/12 03:28:24;;;;;;;20.27;13.65;;;;;;;;;;5000119;28;20030;-87
2021/03/12 03:31:26;;;;;;;20.70;13.15;;;;;;;;;;5000160;28;20113;-87
2021/03/12 03:33:52;;;;;;;18.45;13.15;;;;;;;;;;4999906;28;20022;-86
2021/03/12 03:36:19;;;;;;;21.00;14.10;;;;;;;;;;4999826;28;20037;-86
2021/03/12 03:38:45;;;;;;;20.75;13.65;;;;;;;;;;4999981;28;20077;-87
2021/03/12 03:41:12;;;;;;;19.50;13.63;;;;;;;;;;4999841;28;20321;-86
2021/03/12 03:43:40;;;;;;;24.65;14.15;;;;;;;;;;5000175;28;20118;-86
2021/03/12 03:49:10;;;;;;;23.63;14.13;;;;;;;;;;4999594;28;20153;-86
2021/03/12 03:51:40;;;;;;;22.77;14.90;;;;;;;;;;4999487;28;20453;-86
2021/03/12 03:54:07;;;;;;;20.55;14.15;;;;;;;;;;4999877;28;20034;-86
2021/03/12 03:56:36;;;;;;;23.83;14.93;;;;;;;;;;4998777;28;20025;-87
2021/03/12 03:59:02;;;;;;;24.65;14.20;;;;;;;;;;4999959;28;20090;-87
2021/03/12 04:01:29;;;;;;;28.20;16.25;;;;;;;;;;4999691;28;20026;-87
2021/03/12 04:03:55;;;;;;;25.40;14.70;;;;;;;;;;4997931;28;20033;-87
2021/03/12 04:06:21;;;;;;;23.45;14.35;;;;;;;;;;4999626;28;20033;-86
2021/03/12 04:08:48;;;;;;;24.63;14.77;;;;;;;;;;4999593;28;20036;-87
2021/03/12 04:11:14;;;;;;;25.83;14.85;;;;;;;;;;4999308;28;20027;-86
2021/03/12 04:13:41;;;;;;;23.52;14.38;;;;;;;;;;4999423;28;20369;-86
2021/03/12 04:19:10;;;;;;;21.80;14.45;;;;;;;;;;4999319;28;20040;-85
2021/03/12 04:21:37;;;;;;;22.10;14.63;;;;;;;;;;4998918;28;20027;-88
2021/03/12 04:24:04;;;;;;;22.27;14.05;;;;;;;;;;4999043;28;20031;-87
2021/03/12 04:26:30;;;;;;;22.27;14.07;;;;;;;;;;4999140;28;20030;-87
2021/03/12 04:28:57;;;;;;;22.00;14.43;;;;;;;;;;4998549;28;20361;-87
2021/03/12 04:31:23;;;;;;;23.65;15.55;;;;;;;;;;4999242;28;20030;-87
2021/03/12 04:33:49;;;;;;;26.15;17.02;;;;;;;;;;5002747;28;20108;-87
2021/03/12 04:36:16;;;;;;;25.95;15.55;;;;;;;;;;5018882;28;20298;-86
2021/03/12 04:38:43;;;;;;;26.83;16.00;;;;;;;;;;5018865;28;20033;-88
2021/03/12 04:41:09;;;;;;;26.17;16.05;;;;;;;;;;5017431;28;20420;-88
2021/03/12 04:43:36;;;;;;;22.17;13.98;;;;;;;;;;5017447;28;20030;-85
2021/03/12 04:49:09;;;;;;;22.05;14.40;;;;;;;;;;5018273;28;20105;-85
2021/03/12 04:51:36;;;;;;;26.48;15.18;;;;;;;;;;5017939;28;20049;-86
2021/03/12 04:54:06;;;;;;;26.15;15.48;;;;;;;;;;5018405;28;20029;-86
2021/03/12 04:56:32;;;;;;;24.23;13.90;;;;;;;;;;5018064;28;20475;-86
2021/03/12 04:58:58;;;;;;;24.05;14.90;;;;;;;;;;5018055;28;20408;-86
2021/03/12 05:04:49;;;;;;;23.80;15.18;;;;;;;;;;5009334;28;20101;-84
2021/03/12 05:07:17;;;;;;;24.85;15.25;;;;;;;;;;4998217;28;20393;-85
2021/03/12 05:09:43;;;;;;;24.02;14.55;;;;;;;;;;4998353;28;20037;-85
2021/03/12 05:12:09;;;;;;;24.50;15.02;;;;;;;;;;4998159;28;20026;-85
2021/03/12 05:14:35;;;;;;;23.33;14.90;;;;;;;;;;4997195;28;20029;-86
2021/03/12 05:17:22;;;;;;;24.23;16.15;;;;;;;;;;4998077;28;20038;-85
2021/03/12 05:19:48;;;;;;;27.55;16.13;;;;;;;;;;4997124;28;20023;-85
2021/03/12 05:22:14;;;;;;;41.25;20.58;;;;;;;;;;4998080;28;20038;-86
2021/03/12 05:24:40;;;;;;;38.60;21.73;;;;;;;;;;4998047;28;20085;-85
2021/03/12 05:27:06;;;;;;;33.25;18.55;;;;;;;;;;4997114;28;20030;-85
2021/03/12 05:29:32;;;;;;;35.38;21.02;;;;;;;;;;4997929;28;20030;-85
2021/03/12 05:31:59;;;;;;;35.42;18.42;;;;;;;;;;4997891;28;20054;-84
2021/03/12 05:34:25;;;;;;;32.78;18.65;;;;;;;;;;4996725;28;20137;-85
2021/03/12 05:36:51;;;;;;;30.52;17.75;;;;;;;;;;4997860;28;20036;-85
2021/03/12 05:39:19;;;;;;;25.63;17.00;;;;;;;;;;4997709;28;20053;-85
2021/03/12 05:41:46;;;;;;;30.27;19.73;;;;;;;;;;5002183;28;20031;-85
2021/03/12 05:44:12;;;;;;;24.52;16.45;;;;;;;;;;5001496;28;20365;-85
2021/03/12 05:49:43;;;;;;;34.72;20.02;;;;;;;;;;5000514;28;20117;-84
2021/03/12 05:52:11;;;;;;;40.90;29.55;;;;;;;;;;5001215;28;20054;-84
2021/03/12 05:54:37;;;;;;;43.90;30.48;;;;;;;;;;5001634;28;20026;-85
2021/03/12 05:57:03;;;;;;;34.50;22.33;;;;;;;;;;5001715;28;20054;-86
2021/03/12 05:59:29;;;;;;;44.22;28.05;;;;;;;;;;5001973;28;20050;-86
2021/03/12 06:01:55;;;;;;;33.38;23.77;;;;;;;;;;5001656;28;20034;-87
2021/03/12 06:04:21;;;;;;;38.25;21.73;;;;;;;;;;5001469;28;20508;-85
2021/03/12 06:06:47;;;;;;;32.28;21.70;;;;;;;;;;5001639;28;20030;-86
2021/03/12 06:09:13;;;;;;;31.02;19.70;;;;;;;;;;5001038;28;20113;-86
2021/03/12 06:11:39;;;;;;;52.05;35.53;;;;;;;;;;5001159;28;20360;-83
2021/03/12 06:14:06;;;;;;;106.82;65.20;;;;;;;;;;5001383;28;20023;-84
2021/03/12 06:16:52;;;;;;;49.67;32.80;;;;;;;;;;5001004;28;20029;-84
2021/03/12 06:19:21;;;;;;;37.90;24.63;;;;;;;;;;4999981;28;20080;-84
2021/03/12 06:21:48;;;;;;;34.80;20.75;;;;;;;;;;5001040;28;20113;-85
2021/03/12 06:24:34;;;;;;;34.05;20.65;;;;;;;;;;5000133;28;20328;-85
2021/03/12 06:27:00;;;;;;;52.25;27.58;;;;;;;;;;5001415;28;20030;-84
2021/03/12 06:29:36;;;;;;;37.38;23.48;;;;;;;;;;5001278;28;20190;-85
2021/03/12 06:32:03;;;;;;;34.30;20.75;;;;;;;;;;5000138;28;20022;-85
2021/03/12 06:34:30;;;;;;;37.67;23.83;;;;;;;;;;5000709;28;20026;-84
2021/03/12 06:36:56;;;;;;;161.18;103.43;;;;;;;;;;5001169;28;20031;-84
2021/03/12 06:39:32;;;;;;;101.43;73.40;;;;;;;;;;5000420;28;20034;-90
2021/03/12 06:41:58;;;;;;;43.20;27.10;;;;;;;;;;5001373;28;20056;-90
2021/03/12 06:44:31;;;;;;;37.13;23.90;;;;;;;;;;5001259;28;20038;-90
2021/03/12 06:47:16;;;;;;;37.50;24.23;;;;;;;;;;5001328;28;20049;-89
2021/03/12 06:49:52;;;;;;;78.63;38.22;;;;;;;;;;5000993;28;20022;-89
2021/03/12 06:52:18;;;;;;;83.97;40.53;;;;;;;;;;5000272;28;20042;-89
2021/03/12 06:54:55;;;;;;;51.90;29.45;;;;;;;;;;5000809;28;20034;-89
2021/03/12 06:57:22;;;;;;;44.47;24.58;;;;;;;;;;5001171;28;20045;-90
2021/03/12 06:59:57;;;;;;;33.33;20.50;;;;;;;;;;4999863;28;20476;-90
2021/03/12 07:02:30;;;;;;;42.58;25.33;;;;;;;;;;5000949;28;20030;-89
2021/03/12 07:04:56;;;;;;;44.97;25.63;;;;;;;;;;5000896;28;20026;-89
2021/03/12 07:07:41;;;;;;;41.78;23.63;;;;;;;;;;5000465;28;20050;-89
2021/03/12 07:10:08;;;;;;;44.67;25.38;;;;;;;;;;5000885;28;20034;-89
2021/03/12 07:12:44;;;;;;;53.40;29.23;;;;;;;;;;5000646;28;20023;-90
2021/03/12 07:15:11;;;;;;;77.35;40.70;;;;;;;;;;5000896;28;20022;-88
2021/03/12 07:17:37;;;;;;;61.63;34.25;;;;;;;;;;4990580;28;20038;-89
2021/03/12 07:20:05;;;;;;;68.32;37.78;;;;;;;;;;4980131;28;20026;-90
2021/03/12 07:22:33;;;;;;;50.17;30.40;;;;;;;;;;4980776;28;20422;-90
2021/03/12 07:25:00;;;;;;;84.72;47.60;;;;;;;;;;4980779;28;20039;-91
2021/03/12 07:27:29;;;;;;;115.55;50.65;;;;;;;;;;4981031;28;20401;-90
2021/03/12 07:29:56;;;;;;;82.43;41.70;;;;;;;;;;4980833;28;20027;-89
2021/03/12 07:32:25;;;;;;;75.72;39.17;;;;;;;;;;4981018;28;20070;-91
2021/03/12 07:34:51;;;;;;;84.25;39.00;;;;;;;;;;4981041;28;20062;-90
2021/03/12 07:37:19;;;;;;;83.82;40.95;;;;;;;;;;4979545;28;20029;-89
2021/03/12 07:39:46;;;;;;;100.05;45.47;;;;;;;;;;4980474;28;20023;-90
2021/03/12 07:42:16;;;;;;;118.60;50.30;;;;;;;;;;4980840;28;20398;-89
2021/03/12 07:44:46;;;;;;;130.57;52.25;;;;;;;;;;4979647;28;20054;-90
2021/03/12 07:47:31;;;;;;;105.57;44.53;;;;;;;;;;4985810;28;20516;-89
2021/03/12 07:49:57;;;;;;;102.22;45.22;;;;;;;;;;4999787;28;20121;-89
2021/03/12 07:53:02;;;;;;;112.32;48.15;;;;;;;;;;4999378;28;20046;-90
2021/03/12 07:55:50;;;;;;;73.05;37.30;;;;;;;;;;4959500;29;20485;-90
2021/03/12 07:58:36;;;;;;;54.20;27.40;;;;;;;;;;4959309;29;20111;-89
2021/03/12 08:04:42;;;;;;;47.58;27.05;;;;;;;;;;4958790;28;20070;-89
2021/03/12 08:07:18;;;;;;;65.65;34.28;;;;;;;;;;4942861;28;20157;-89
2021/03/12 08:09:45;;;;;;;71.85;38.75;;;;;;;;;;4958851;28;20563;-89
2021/03/12 08:12:30;;;;;;;70.40;38.60;;;;;;;;;;4958838;29;20030;-88
2021/03/12 08:15:12;;;;;;;67.40;36.20;;;;;;;;;;4959221;29;20030;-89
2021/03/12 08:23:45;;;;;;;42.80;24.73;;;;;;;;;;4958934;28;20450;-89
2021/03/12 08:26:11;;;;;;;51.55;28.67;;;;;;;;;;4972192;28;20027;-86
2021/03/12 08:28:37;;;;;;;75.97;38.95;;;;;;;;;;4979654;28;20066;-85
2021/03/12 08:31:03;;;;;;;69.22;38.80;;;;;;;;;;4979532;28;20034;-83
2021/03/12 08:33:31;;;;;;;85.40;43.85;;;;;;;;;;4979223;28;20019;-85
2021/03/12 08:35:57;;;;;;;117.63;60.13;;;;;;;;;;4979518;28;20019;-84
2021/03/12 08:38:24;;;;;;;120.60;60.60;;;;;;;;;;4978536;28;20026;-85
2021/03/12 08:40:55;;;;;;;97.97;50.20;;;;;;;;;;4979705;28;20325;-85
2021/03/12 08:43:21;;;;;;;95.63;50.20;;;;;;;;;;4979700;28;20034;-85
2021/03/12 08:45:52;;;;;;;89.10;47.65;;;;;;;;;;4978518;28;20035;-85
2021/03/12 08:48:37;;;;;;;76.35;45.33;;;;;;;;;;4978899;28;20069;-84
2021/03/12 08:51:08;;;;;;;87.30;47.45;;;;;;;;;;4978936;28;20047;-84
2021/03/12 08:53:41;;;;;;;69.15;42.65;;;;;;;;;;4978120;28;20366;-84
2021/03/12 08:56:09;;;;;;;85.18;46.38;;;;;;;;;;4979188;28;20406;-84
2021/03/12 08:58:36;;;;;;;96.93;46.58;;;;;;;;;;4979018;28;20059;-85
2021/03/12 09:01:12;;;;;;;84.75;42.92;;;;;;;;;;4979062;28;20406;-85
2021/03/12 09:03:41;;;;;;;54.58;31.98;;;;;;;;;;4978824;28;20026;-84
2021/03/12 09:06:08;;;;;;;49.50;28.95;;;;;;;;;;4978864;28;20089;-85
2021/03/12 09:08:35;;;;;;;46.00;24.90;;;;;;;;;;4978673;28;20030;-83
2021/03/12 09:11:02;;;;;;;52.88;31.60;;;;;;;;;;4978044;28;20027;-85
2021/03/12 09:13:29;;;;;;;40.10;26.23;;;;;;;;;;4978851;28;20425;-84
2021/03/12 09:15:55;;;;;;;40.90;25.77;;;;;;;;;;4977829;28;20027;-84
2021/03/12 09:18:22;;;;;;;48.15;27.15;;;;;;;;;;4979055;28;20031;-84
2021/03/12 09:20:50;;;;;;;35.83;22.70;;;;;;;;;;4978601;28;20030;-84
2021/03/12 09:23:16;;;;;;;33.30;20.35;;;;;;;;;;4977665;28;20077;-84
2021/03/12 09:25:42;;;;;;;56.00;29.08;;;;;;;;;;4977777;28;20034;-84
2021/03/12 09:28:09;;;;;;;55.33;29.90;;;;;;;;;;4978586;28;20041;-83
2021/03/12 09:30:39;;;;;;;53.90;29.88;;;;;;;;;;4978537;28;20061;-83
2021/03/12 09:33:07;;;;;;;39.15;24.17;;;;;;;;;;4978506;28;20069;-84
2021/03/12 09:35:42;;;;;;;44.45;24.08;;;;;;;;;;4978338;28;20027;-83
2021/03/12 09:38:08;;;;;;;51.78;28.85;;;;;;;;;;4978745;28;20048;-83
2021/03/12 09:40:37;;;;;;;47.65;27.67;;;;;;;;;;4978659;28;20074;-83
2021/03/12 09:43:04;;;;;;;49.13;29.65;;;;;;;;;;4977558;28;20181;-84
2021/03/12 09:45:30;;;;;;;54.25;30.52;;;;;;;;;;4977704;28;20035;-84
2021/03/12 09:47:56;;;;;;;48.83;28.15;;;;;;;;;;4977430;28;20097;-84
2021/03/12 09:50:26;;;;;;;43.28;26.30;;;;;;;;;;4978240;28;20023;-84
2021/03/12 09:52:53;;;;;;;39.90;23.75;;;;;;;;;;4977604;28;20497;-84
2021/03/12 09:55:20;;;;;;;43.88;25.30;;;;;;;;;;4977291;28;20353;-84
2021/03/12 09:57:46;;;;;;;38.55;24.15;;;;;;;;;;4977379;28;20030;-85
2021/03/12 10:00:20;;;;;;;39.65;23.92;;;;;;;;;;4978377;28;20058;-84
2021/03/12 10:03:07;;;;;;;34.67;22.52;;;;;;;;;;4978571;28;20103;-85
2021/03/12 10:05:34;;;;;;;72.30;51.47;;;;;;;;;;4988553;28;20046;-84
2021/03/12 10:08:04;;;;;;;47.42;33.75;;;;;;;;;;4995637;28;20042;-84
2021/03/12 10:10:32;;;;;;;42.78;33.20;;;;;;;;;;4996522;28;20022;-84
2021/03/12 10:13:00;;;;;;;33.35;25.15;;;;;;;;;;4996400;28;20041;-83
2021/03/12 10:15:29;;;;;;;39.80;27.15;;;;;;;;;;4997433;28;20026;-83
2021/03/12 10:17:55;;;;;;;42.15;26.60;;;;;;;;;;4997513;28;20100;-83
2021/03/12 10:20:35;;;;;;;39.25;25.13;;;;;;;;;;4996148;28;20066;-84
2021/03/12 10:23:04;;;;;;;43.47;27.48;;;;;;;;;;4997176;28;20034;-84
2021/03/12 10:25:31;;;;;;;25.50;16.90;;;;;;;;;;4998052;28;20080;-83
2021/03/12 10:27:59;;;;;;;26.70;16.13;;;;;;;;;;5000090;28;20030;-84
2021/03/12 10:30:29;;;;;;;46.80;27.58;;;;;;;;;;5001388;28;20026;-84
2021/03/12 10:33:33;;;;;;;56.30;30.98;;;;;;;;;;5000028;28;20034;-83
2021/03/12 10:36:00;;;;;;;35.33;20.88;;;;;;;;;;5001109;28;20068;-84
2021/03/12 10:38:28;;;;;;;60.33;29.95;;;;;;;;;;5000812;28;20072;-84
2021/03/12 10:40:57;;;;;;;83.63;42.20;;;;;;;;;;5000890;28;20026;-84
2021/03/12 10:43:24;;;;;;;85.68;45.80;;;;;;;;;;5000844;28;20030;-85
2021/03/12 10:45:52;;;;;;;86.32;42.72;;;;;;;;;;4999741;28;20038;-84
2021/03/12 10:48:19;;;;;;;81.80;46.38;;;;;;;;;;5000723;28;20026;-84
2021/03/12 10:50:52;;;;;;;157.40;79.35;;;;;;;;;;4999423;28;20036;-84
2021/03/12 10:53:18;;;;;;;139.63;71.22;;;;;;;;;;5000946;28;20033;-83
2021/03/12 10:55:46;;;;;;;108.65;61.20;;;;;;;;;;4999505;28;20042;-84
2021/03/12 10:58:28;;;;;;;118.20;59.22;;;;;;;;;;5000911;28;20036;-84
2021/03/12 11:01:04;;;;;;;88.50;45.38;;;;;;;;;;5000696;28;20057;-84
2021/03/12 11:06:35;;;;;;;60.90;34.22;;;;;;;;;;5000346;28;20137;-84
2021/03/12 11:09:06;;;;;;;63.42;33.17;;;;;;;;;;4999329;28;20105;-84
2021/03/12 11:11:32;;;;;;;48.35;27.55;;;;;;;;;;5000296;28;20018;-84
2021/03/12 11:13:58;;;;;;;39.03;25.98;;;;;;;;;;5000604;28;20046;-84
2021/03/12 11:16:24;;;;;;;49.15;31.77;;;;;;;;;;5000306;28;20034;-84
2021/03/12 11:19:27;;;;;;;41.00;27.83;;;;;;;;;;5000289;28;20077;-85
2021/03/12 11:21:54;;;;;;;36.45;22.65;;;;;;;;;;4999103;28;20026;-84
2021/03/12 11:24:20;;;;;;;24.73;16.10;;;;;;;;;;5000132;28;20066;-84
2021/03/12 11:26:46;;;;;;;37.13;24.23;;;;;;;;;;5000048;28;20030;-84
2021/03/12 11:29:12;;;;;;;31.90;22.45;;;;;;;;;;5000059;28;20018;-84
2021/03/12 11:31:54;;;;;;;39.65;26.85;;;;;;;;;;4999005;28;20035;-85
2021/03/12 11:34:20;;;;;;;35.05;23.17;;;;;;;;;;4999292;28;20113;-84
2021/03/12 11:36:46;;;;;;;39.35;24.48;;;;;;;;;;4999466;28;20030;-84
2021/03/12 11:39:12;;;;;;;37.20;23.73;;;;;;;;;;4999284;28;20409;-83
2021/03/12 11:41:38;;;;;;;37.60;22.90;;;;;;;;;;5000067;28;20030;-84
2021/03/12 11:44:05;;;;;;;37.67;23.17;;;;;;;;;;4999812;28;20037;-84
2021/03/12 11:46:31;;;;;;;38.13;22.80;;;;;;;;;;4999662;28;20031;-84
2021/03/12 11:48:57;;;;;;;39.40;24.33;;;;;;;;;;4999636;28;20044;-84
2021/03/12 11:51:24;;;;;;;39.38;23.67;;;;;;;;;;4998610;28;20052;-84
2021/03/12 11:53:50;;;;;;;40.42;23.98;;;;;;;;;;4999525;28;20034;-85
2021/03/12 11:56:16;;;;;;;45.92;25.80;;;;;;;;;;4999353;28;20054;-85
2021/03/12 11:58:42;;;;;;;41.10;25.83;;;;;;;;;;4999813;28;20317;-85
2021/03/12 12:01:08;;;;;;;45.50;27.08;;;;;;;;;;4999551;28;20037;-85
2021/03/12 12:06:37;;;;;;;55.55;35.92;;;;;;;;;;4999136;28;20053;-84
2021/03/12 12:09:03;;;;;;;61.10;39.20;;;;;;;;;;4999252;28;20488;-84
2021/03/12 12:11:30;;;;;;;60.70;36.03;;;;;;;;;;4999173;28;20456;-84
2021/03/12 12:13:57;;;;;;;55.33;34.38;;;;;;;;;;4999137;28;20036;-84
2021/03/12 12:16:23;;;;;;;56.65;33.72;;;;;;;;;;4999364;28;20026;-83
2021/03/12 12:18:49;;;;;;;59.58;36.15;;;;;;;;;;4999058;28;20050;-83
2021/03/12 12:21:17;;;;;;;64.95;37.83;;;;;;;;;;4999310;28;20034;-87
2021/03/12 12:23:43;;;;;;;70.70;41.08;;;;;;;;;;4998162;28;20431;-85
2021/03/12 12:26:09;;;;;;;69.63;39.85;;;;;;;;;;4998873;28;20393;-86
2021/03/12 12:28:35;;;;;;;60.65;35.55;;;;;;;;;;4999037;28;20030;-86
2021/03/12 12:31:01;;;;;;;49.75;32.00;;;;;;;;;;4999092;28;20106;-85
2021/03/12 12:33:28;;;;;;;50.20;31.45;;;;;;;;;;4998732;28;20032;-87
2021/03/12 12:35:54;;;;;;;51.55;32.70;;;;;;;;;;4998907;28;20022;-86
2021/03/12 12:38:20;;;;;;;45.25;29.42;;;;;;;;;;4999131;28;20109;-86
2021/03/12 12:40:46;;;;;;;41.33;26.30;;;;;;;;;;4998028;28;20033;-86
2021/03/12 12:43:13;;;;;;;49.90;29.17;;;;;;;;;;4997771;28;20077;-86
2021/03/12 12:45:39;;;;;;;47.67;27.88;;;;;;;;;;4998920;28;20030;-90
2021/03/12 12:48:05;;;;;;;43.28;28.25;;;;;;;;;;4998410;28;20026;-85
2021/03/12 12:50:31;;;;;;;54.33;33.53;;;;;;;;;;4997981;28;20030;-85
2021/03/12 12:52:57;;;;;;;52.60;32.83;;;;;;;;;;5002719;28;20058;-85
2021/03/12 12:55:24;;;;;;;40.35;23.98;;;;;;;;;;5008179;28;20022;-85
2021/03/12 12:57:50;;;;;;;53.30;29.83;;;;;;;;;;5001228;28;20034;-84
2021/03/12 13:00:16;;;;;;;41.65;26.73;;;;;;;;;;4998735;28;20075;-85
2021/03/12 13:02:42;;;;;;;37.17;25.70;;;;;;;;;;4998327;28;20054;-85
2021/03/12 13:05:09;;;;;;;43.88;26.10;;;;;;;;;;4998489;28;20110;-85
2021/03/12 13:07:35;;;;;;;37.42;24.85;;;;;;;;;;4998179;28;20041;-85
2021/03/12 13:10:01;;;;;;;42.08;27.38;;;;;;;;;;4997400;28;20041;-86
2021/03/12 13:12:27;;;;;;;55.28;36.10;;;;;;;;;;4997993;28;20026;-86
2021/03/12 13:14:53;;;;;;;40.78;26.75;;;;;;;;;;4998408;28;20069;-86
2021/03/12 13:17:20;;;;;;;43.17;27.58;;;;;;;;;;4998412;28;20026;-86
2021/03/12 13:19:51;;;;;;;44.10;29.40;;;;;;;;;;4998360;28;20026;-85
2021/03/12 13:22:17;;;;;;;49.30;30.10;;;;;;;;;;4998511;28;20402;-86
2021/03/12 13:24:43;;;;;;;45.85;29.33;;;;;;;;;;4998338;28;20177;-86
2021/03/12 13:27:10;;;;;;;42.42;28.90;;;;;;;;;;4998283;28;20030;-89
2021/03/12 13:29:36;;;;;;;46.17;30.35;;;;;;;;;;4998088;28;20088;-84
2021/03/12 13:32:03;;;;;;;51.17;33.70;;;;;;;;;;4997726;28;20018;-86
2021/03/12 13:34:29;;;;;;;51.75;31.50;;;;;;;;;;4997951;28;20030;-85
2021/03/12 13:36:55;;;;;;;49.85;32.20;;;;;;;;;;4996934;28;20306;-84
2021/03/12 13:39:21;;;;;;;46.60;30.17;;;;;;;;;;4997872;28;20030;-84
2021/03/12 13:41:48;;;;;;;59.08;34.05;;;;;;;;;;4997799;28;20417;-84
2021/03/12 13:44:15;;;;;;;66.13;37.05;;;;;;;;;;4998021;28;20102;-84
2021/03/12 13:46:43;;;;;;;60.22;35.08;;;;;;;;;;4996576;28;20064;-85
2021/03/12 13:49:09;;;;;;;45.65;30.98;;;;;;;;;;4997608;28;20033;-84
2021/03/12 13:51:35;;;;;;;43.45;29.70;;;;;;;;;;4997473;28;20050;-85
2021/03/12 13:54:01;;;;;;;45.95;30.95;;;;;;;;;;4996530;28;20081;-85
2021/03/12 13:56:27;;;;;;;52.33;34.33;;;;;;;;;;4997879;28;20023;-88
2021/03/12 13:58:53;;;;;;;45.10;30.25;;;;;;;;;;4997919;28;20080;-89
2021/03/12 14:01:19;;;;;;;46.60;32.97;;;;;;;;;;4999603;28;20039;-88
2021/03/12 14:03:46;;;;;;;44.22;29.65;;;;;;;;;;5000837;28;20034;-85
2021/03/12 14:06:12;;;;;;;40.90;27.45;;;;;;;;;;5001691;28;20030;-85
2021/03/12 14:08:38;;;;;;;50.10;30.90;;;;;;;;;;5001446;28;20124;-86
2021/03/12 14:11:04;;;;;;;42.55;27.67;;;;;;;;;;5001639;28;20025;-86
2021/03/12 14:13:30;;;;;;;50.75;31.92;;;;;;;;;;5001470;28;20023;-86
2021/03/12 14:15:56;;;;;;;49.67;29.63;;;;;;;;;;5001551;28;20026;-85
2021/03/12 14:18:22;;;;;;;78.35;42.35;;;;;;;;;;5001514;28;20041;-86
2021/03/12 14:20:48;;;;;;;90.50;47.22;;;;;;;;;;5001390;28;20401;-85
2021/03/12 14:23:14;;;;;;;63.72;38.58;;;;;;;;;;5001214;28;20097;-85
2021/03/12 14:25:40;;;;;;;67.53;37.65;;;;;;;;;;5000292;28;20026;-85
2021/03/12 14:28:07;;;;;;;76.20;42.03;;;;;;;;;;5001068;28;20026;-86
2021/03/12 14:30:33;;;;;;;114.07;59.30;;;;;;;;;;5001421;28;20353;-85
2021/03/12 14:32:59;;;;;;;128.90;64.22;;;;;;;;;;5001175;28;20042;-85
2021/03/12 14:35:25;;;;;;;71.00;43.88;;;;;;;;;;5001177;28;20034;-86
2021/03/12 14:37:51;;;;;;;58.13;34.90;;;;;;;;;;5001033;28;20023;-85
2021/03/12 14:40:18;;;;;;;48.95;28.80;;;;;;;;;;5001223;28;20030;-91
2021/03/12 14:42:45;;;;;;;36.60;22.25;;;;;;;;;;5000944;28;20421;-81
2021/03/12 14:45:11;;;;;;;45.55;28.17;;;;;;;;;;5000776;28;20037;-82
2021/03/12 14:47:38;;;;;;;39.88;23.05;;;;;;;;;;5000660;28;20105;-82
2021/03/12 14:50:04;;;;;;;49.10;23.92;;;;;;;;;;4999336;28;20061;-82
2021/03/12 14:52:31;;;;;;;35.85;20.58;;;;;;;;;;5000037;28;20043;-82
2021/03/12 14:54:57;;;;;;;48.35;24.48;;;;;;;;;;5000605;28;20069;-82
2021/03/12 14:57:24;;;;;;;49.55;25.58;;;;;;;;;;5000590;28;20081;-82
2021/03/12 14:59:50;;;;;;;40.40;21.23;;;;;;;;;;5000524;28;20026;-81
2021/03/12 15:02:16;;;;;;;41.20;21.10;;;;;;;;;;5000320;28;20038;-81
2021/03/12 15:04:43;;;;;;;49.65;27.00;;;;;;;;;;4999281;28;20385;-80
2021/03/12 15:07:09;;;;;;;51.83;28.30;;;;;;;;;;4999966;28;20045;-80
2021/03/12 15:09:35;;;;;;;48.45;27.00;;;;;;;;;;4998844;28;20042;-80
2021/03/12 15:12:01;;;;;;;47.45;28.10;;;;;;;;;;4998760;28;20396;-80